Time;durP1;ratioP1;P1;durP2;ratioP2;P2;SDS_P1;SDS_P2;PMS_P1;PMS_P2;Temp;Humidity;BMP_temperature;BMP_pressure;BME280_temperature;BME280_humidity;BME280_pressure;Samples;Min_cycle;Max_cycle;Signal;HPM_P1;HPM_P2
2023/08/20 00:00:44;;;;;;;9.02;5.68;;;;;;;23.24;63.26;94882.06;5090739;28;20267;-45
2023/08/20 00:03:13;;;;;;;6.10;5.10;;;;;;;23.18;63.38;94870.66;5090350;28;20201;-43
2023/08/20 00:05:41;;;;;;;5.68;5.18;;;;;;;23.23;63.24;94878.66;5090419;28;20185;-43
2023/08/20 00:08:08;;;;;;;8.88;5.07;;;;;;;23.23;63.36;94886.50;5090071;28;20641;-42
2023/08/20 00:10:36;;;;;;;6.95;4.82;;;;;;;23.23;63.42;94883.88;5090019;28;20691;-43
2023/08/20 00:13:04;;;;;;;7.28;5.45;;;;;;;23.23;63.16;94878.66;5090064;28;20210;-45
2023/08/20 00:15:30;;;;;;;7.07;4.95;;;;;;;23.19;63.35;94877.50;5090254;28;20189;-43
2023/08/20 00:17:58;;;;;;;6.35;5.18;;;;;;;23.22;63.32;94871.03;5090117;28;20703;-43
2023/08/20 00:20:26;;;;;;;6.65;5.60;;;;;;;23.10;63.49;94857.06;5090561;28;20270;-44
2023/08/20 00:22:53;;;;;;;5.53;4.85;;;;;;;23.22;63.15;94873.63;5090182;28;20201;-43
2023/08/20 00:25:20;;;;;;;6.97;5.35;;;;;;;23.24;63.13;94879.47;5089660;28;20189;-43
2023/08/20 00:27:48;;;;;;;8.18;5.45;;;;;;;23.26;62.80;94877.44;5090215;28;20186;-43
2023/08/20 00:30:15;;;;;;;8.10;5.90;;;;;;;23.32;62.80;94883.63;5089773;28;20193;-44
2023/08/20 00:32:42;;;;;;;6.50;5.55;;;;;;;23.30;62.75;94883.81;5093206;28;20197;-44
2023/08/20 00:35:09;;;;;;;8.32;5.53;;;;;;;23.31;62.56;94882.00;5089927;28;20193;-43
2023/08/20 00:37:36;;;;;;;9.90;5.35;;;;;;;23.29;62.79;94874.41;5089725;28;20661;-43
2023/08/20 00:40:05;;;;;;;7.63;5.68;;;;;;;23.29;62.56;94872.59;5089841;28;20217;-44
2023/08/20 00:42:31;;;;;;;9.52;6.60;;;;;;;23.29;62.45;94882.22;5089940;28;20186;-44
2023/08/20 00:44:59;;;;;;;9.52;6.32;;;;;;;23.27;62.71;94876.41;5089533;28;20650;-43
2023/08/20 00:47:26;;;;;;;7.63;5.93;;;;;;;23.28;62.59;94878.81;5089798;28;20197;-43
2023/08/20 00:49:53;;;;;;;7.45;5.60;;;;;;;23.28;62.44;94880.63;5089666;28;20204;-44
2023/08/20 00:52:22;;;;;;;6.93;6.07;;;;;;;23.31;62.52;94885.41;5089772;28;20181;-43
2023/08/20 00:54:49;;;;;;;8.32;5.95;;;;;;;23.29;62.51;94871.78;5089160;28;20289;-42
2023/08/20 00:57:18;;;;;;;10.30;6.65;;;;;;;23.31;62.58;94877.59;5089773;28;20190;-43
2023/08/20 00:59:48;;;;;;;6.93;6.22;;;;;;;23.35;62.21;94872.75;5089702;28;20177;-43
2023/08/20 01:02:17;;;;;;;9.40;6.32;;;;;;;23.38;61.97;94869.72;5089640;28;20189;-43
2023/08/20 01:04:44;;;;;;;6.85;6.15;;;;;;;23.37;62.30;94873.34;5089128;28;20186;-43
2023/08/20 01:07:18;;;;;;;6.95;6.15;;;;;;;23.37;62.14;94873.34;5089339;28;20288;-43
2023/08/20 01:09:55;;;;;;;10.10;5.95;;;;;;;23.34;62.07;94866.72;5089147;28;20197;-43
2023/08/20 01:12:23;;;;;;;8.77;5.95;;;;;;;23.39;62.39;94872.09;5089515;28;20186;-42
2023/08/20 01:14:50;;;;;;;7.22;6.22;;;;;;;23.36;62.55;94875.16;5089092;28;20236;-43
2023/08/20 01:17:18;;;;;;;6.97;5.93;;;;;;;23.34;62.42;94874.56;5089510;28;20193;-44
2023/08/20 01:19:45;;;;;;;6.95;6.15;;;;;;;23.29;62.98;94880.41;5088936;28;20568;-44
2023/08/20 01:22:43;;;;;;;7.32;6.63;;;;;;;23.27;62.92;94866.78;5089279;28;20182;-42
2023/08/20 01:25:18;;;;;;;8.68;6.68;;;;;;;23.17;63.44;94866.44;5089303;28;20190;-43
2023/08/20 01:27:53;;;;;;;6.95;6.25;;;;;;;23.11;63.15;94849.03;5089126;28;20281;-43
2023/08/20 01:30:22;;;;;;;9.15;6.97;;;;;;;23.23;63.03;94870.03;5088878;28;20193;-43
2023/08/20 01:32:51;;;;;;;7.82;6.00;;;;;;;23.19;63.27;94861.84;5089439;28;20201;-43
2023/08/20 01:35:19;;;;;;;7.82;6.55;;;;;;;23.14;63.71;94866.88;5089062;28;20221;-45
2023/08/20 01:37:46;;;;;;;6.88;6.05;;;;;;;23.14;63.78;94866.06;5093255;28;20181;-43
2023/08/20 01:40:13;;;;;;;8.35;6.38;;;;;;;23.15;63.70;94859.84;5092977;28;20643;-43
2023/08/20 01:42:41;;;;;;;9.68;6.55;;;;;;;23.11;63.83;94854.25;5092970;28;20192;-43
2023/08/20 01:45:08;;;;;;;7.38;6.68;;;;;;;23.11;63.75;94856.06;5093363;28;20194;-43
2023/08/20 01:47:37;;;;;;;6.95;6.22;;;;;;;23.11;63.81;94871.72;5093174;28;20194;-43
2023/08/20 01:50:04;;;;;;;6.78;6.03;;;;;;;22.83;63.88;94818.06;5092939;28;20197;-42
2023/08/20 01:52:31;;;;;;;7.20;6.20;;;;;;;23.00;64.39;94849.72;5092965;28;20208;-43
2023/08/20 01:54:59;;;;;;;8.98;6.82;;;;;;;23.02;64.43;94845.88;5092622;28;20233;-43
2023/08/20 01:57:26;;;;;;;11.32;6.57;;;;;;;23.00;64.26;94847.91;5092908;28;20215;-43
2023/08/20 01:59:52;;;;;;;10.73;6.55;;;;;;;22.98;64.56;94849.94;5092663;28;20553;-43
2023/08/20 02:02:20;;;;;;;10.77;6.35;;;;;;;22.96;64.38;94844.09;5093202;28;20536;-42
2023/08/20 02:04:48;;;;;;;8.75;7.07;;;;;;;22.95;64.67;94842.50;5092480;28;20189;-44
2023/08/20 02:07:14;;;;;;;8.43;6.25;;;;;;;22.93;64.71;94849.75;5092740;28;20194;-44
2023/08/20 02:09:41;;;;;;;9.80;6.80;;;;;;;22.93;64.98;94841.94;5092716;28;20551;-43
2023/08/20 02:12:08;;;;;;;7.32;6.63;;;;;;;22.92;64.85;94845.53;5092605;28;20674;-43
2023/08/20 02:14:35;;;;;;;7.35;6.45;;;;;;;22.93;64.68;94847.16;5092566;28;20209;-44
2023/08/20 02:17:02;;;;;;;7.63;6.63;;;;;;;22.92;64.68;94837.72;5092746;28;20181;-43
2023/08/20 02:19:29;;;;;;;9.40;7.45;;;;;;;22.92;64.73;94835.09;5092592;28;20194;-42
2023/08/20 02:21:57;;;;;;;7.45;6.65;;;;;;;22.88;64.84;94836.50;5092399;28;20194;-44
2023/08/20 02:24:24;;;;;;;9.27;6.28;;;;;;;22.93;65.00;94854.19;5092774;28;20194;-46
2023/08/20 02:26:51;;;;;;;10.45;6.43;;;;;;;22.94;64.98;94845.34;5092998;28;20771;-43
2023/08/20 02:29:18;;;;;;;10.93;6.50;;;;;;;22.93;65.13;94857.59;5092554;28;20190;-43
2023/08/20 02:31:44;;;;;;;8.57;6.88;;;;;;;22.90;65.39;94850.19;5091815;28;20230;-44
2023/08/20 02:34:11;;;;;;;10.30;6.63;;;;;;;22.87;65.51;94850.56;5092500;28;20260;-43
2023/08/20 02:36:38;;;;;;;7.65;6.75;;;;;;;22.85;65.79;94849.19;5092021;28;20213;-43
2023/08/20 02:39:07;;;;;;;7.20;6.25;;;;;;;22.81;65.88;94848.00;5092318;28;20189;-43
2023/08/20 02:41:34;;;;;;;7.82;6.55;;;;;;;22.76;66.27;94848.63;5091753;28;20304;-43
2023/08/20 02:44:01;;;;;;;9.95;7.00;;;;;;;22.73;66.20;94847.22;5092415;28;20621;-43
2023/08/20 02:46:28;;;;;;;8.00;7.10;;;;;;;22.69;66.74;94853.88;5092022;28;20197;-43
2023/08/20 02:48:54;;;;;;;8.07;6.28;;;;;;;22.68;66.95;94856.69;5091880;28;20182;-43
2023/08/20 02:51:21;;;;;;;8.70;6.30;;;;;;;22.66;67.34;94858.69;5092072;28;20561;-42
2023/08/20 02:53:49;;;;;;;9.00;5.47;;;;;;;22.63;67.55;94862.53;5091884;28;20298;-43
2023/08/20 02:56:17;;;;;;;7.82;6.95;;;;;;;22.56;67.84;94863.56;5091814;28;20190;-43
2023/08/20 02:58:44;;;;;;;8.32;6.13;;;;;;;22.53;68.04;94862.97;5091424;28;20280;-43
2023/08/20 03:01:19;;;;;;;7.05;6.40;;;;;;;22.26;68.56;94831.00;5091883;28;20633;-43
2023/08/20 03:03:46;;;;;;;7.60;6.63;;;;;;;22.40;68.83;94868.22;5091461;28;20193;-43
2023/08/20 03:06:13;;;;;;;8.05;6.65;;;;;;;22.39;69.04;94863.22;5092044;28;20607;-43
2023/08/20 03:08:40;;;;;;;9.73;6.43;;;;;;;22.34;69.31;94873.47;5091455;28;20228;-43
2023/08/20 03:11:07;;;;;;;14.02;6.82;;;;;;;22.14;69.37;94844.88;5091425;28;20246;-43
2023/08/20 03:13:35;;;;;;;11.27;6.63;;;;;;;22.25;69.79;94870.31;5091045;28;20186;-43
2023/08/20 03:16:03;;;;;;;8.52;6.60;;;;;;;22.20;70.06;94870.13;5091386;28;20665;-43
2023/08/20 03:18:29;;;;;;;6.97;6.22;;;;;;;22.16;70.24;94877.53;5091162;28;20190;-44
2023/08/20 03:20:56;;;;;;;8.52;5.88;;;;;;;22.13;70.65;94871.94;5091114;28;20186;-44
2023/08/20 03:23:24;;;;;;;11.13;7.50;;;;;;;22.12;70.81;94870.31;5091030;28;20276;-43
2023/08/20 03:25:51;;;;;;;9.90;6.32;;;;;;;22.11;70.79;94873.94;5091361;28;20266;-43
2023/08/20 03:28:19;;;;;;;8.93;5.78;;;;;;;22.09;71.07;94868.91;5091471;28;20182;-42
2023/08/20 03:30:47;;;;;;;9.18;6.82;;;;;;;22.07;71.85;94862.31;5090384;28;20335;-42
2023/08/20 03:33:14;;;;;;;10.63;6.50;;;;;;;21.94;71.72;94856.13;5091280;28;20205;-45
2023/08/20 03:35:41;;;;;;;9.07;6.55;;;;;;;21.93;72.15;94867.53;5090755;28;20236;-43
2023/08/20 03:38:08;;;;;;;10.40;6.75;;;;;;;21.86;72.42;94871.16;5091231;28;20189;-44
2023/08/20 03:40:35;;;;;;;12.88;6.78;;;;;;;21.79;72.63;94860.75;5090626;28;20201;-43
2023/08/20 03:43:01;;;;;;;8.15;6.82;;;;;;;21.75;72.92;94859.56;5090813;28;20568;-43
2023/08/20 03:45:30;;;;;;;7.97;6.90;;;;;;;21.63;73.09;94843.78;5090611;28;20193;-43
2023/08/20 03:47:58;;;;;;;11.68;6.97;;;;;;;21.68;73.08;94858.78;5091179;28;20197;-42
2023/08/20 03:50:25;;;;;;;8.38;7.53;;;;;;;21.54;73.05;94829.34;5090519;28;20193;-42
2023/08/20 03:52:52;;;;;;;12.85;7.57;;;;;;;21.63;73.08;94846.38;5090541;28;20189;-41
2023/08/20 03:55:19;;;;;;;13.68;7.20;;;;;;;21.60;73.26;94846.78;5090619;28;20225;-43
2023/08/20 03:57:45;;;;;;;7.68;6.45;;;;;;;21.60;73.32;94851.97;5090478;28;20186;-43
2023/08/20 04:00:13;;;;;;;10.10;6.70;;;;;;;21.62;73.30;94844.75;5089802;28;20186;-42
2023/08/20 04:02:40;;;;;;;11.02;7.90;;;;;;;21.64;73.33;94858.38;5090758;28;20186;-43
2023/08/20 04:05:08;;;;;;;9.15;7.18;;;;;;;21.68;73.17;94853.56;5090667;28;20238;-43
2023/08/20 04:07:36;;;;;;;8.70;7.57;;;;;;;21.71;72.95;94850.53;5090366;28;20198;-44
2023/08/20 04:10:03;;;;;;;15.90;7.07;;;;;;;21.73;72.96;94853.75;5090486;28;20644;-44
2023/08/20 04:12:30;;;;;;;9.85;7.57;;;;;;;21.69;72.74;94835.13;5090328;28;20182;-43
2023/08/20 04:14:56;;;;;;;10.18;6.80;;;;;;;21.72;72.84;94847.75;5090645;28;20314;-43
2023/08/20 04:17:23;;;;;;;9.73;6.97;;;;;;;21.75;73.00;94849.16;5090239;28;20186;-42
2023/08/20 04:19:50;;;;;;;18.50;7.82;;;;;;;21.77;73.15;94849.75;5091071;28;20190;-43
2023/08/20 04:22:18;;;;;;;11.05;7.18;;;;;;;21.81;73.34;94845.75;5090956;28;20269;-44
2023/08/20 04:24:45;;;;;;;8.52;7.63;;;;;;;21.84;73.21;94849.72;5090350;28;20220;-44
2023/08/20 04:27:12;;;;;;;10.70;7.25;;;;;;;21.93;73.14;94856.31;5089941;28;20194;-43
2023/08/20 04:29:38;;;;;;;12.77;7.40;;;;;;;21.99;73.07;94847.69;5090690;28;20186;-42
2023/08/20 04:32:06;;;;;;;11.55;8.48;;;;;;;22.00;72.84;94852.69;5089585;28;20225;-42
2023/08/20 04:34:33;;;;;;;10.25;7.43;;;;;;;22.08;72.53;94851.69;5090502;28;20225;-43
2023/08/20 04:37:00;;;;;;;9.75;7.03;;;;;;;22.15;72.43;94854.28;5090018;28;20182;-43
2023/08/20 04:39:28;;;;;;;10.38;7.70;;;;;;;22.16;72.21;94846.28;5089852;28;20198;-43
2023/08/20 04:41:57;;;;;;;12.15;7.57;;;;;;;22.39;71.52;94864.03;5090120;28;20189;-43
2023/08/20 04:44:24;;;;;;;10.85;8.05;;;;;;;22.53;71.38;94862.16;5089730;28;20182;-44
2023/08/20 04:46:50;;;;;;;13.43;7.63;;;;;;;22.70;70.67;94860.66;5090078;28;20205;-44
2023/08/20 04:49:17;;;;;;;9.57;7.47;;;;;;;22.93;69.85;94867.22;5090029;28;20189;-44
2023/08/20 04:51:44;;;;;;;10.77;7.57;;;;;;;23.13;68.84;94859.25;5089672;28;20205;-43
2023/08/20 04:54:11;;;;;;;8.40;7.22;;;;;;;23.32;68.83;94865.38;5089497;28;20676;-42
2023/08/20 04:56:39;;;;;;;9.93;7.53;;;;;;;23.62;68.08;94865.50;5089782;28;20197;-43
2023/08/20 04:59:05;;;;;;;10.52;7.43;;;;;;;23.93;66.54;94860.22;5089703;28;20729;-45
2023/08/20 05:01:32;;;;;;;9.55;8.48;;;;;;;24.21;65.29;94866.75;5089812;28;20629;-44
2023/08/20 05:03:59;;;;;;;10.88;8.75;;;;;;;24.24;64.65;94868.94;5089309;28;20201;-44
2023/08/20 05:06:26;;;;;;;17.08;9.40;;;;;;;24.26;64.55;94865.09;5089808;28;20273;-44
2023/08/20 05:08:52;;;;;;;9.73;7.78;;;;;;;24.39;63.59;94869.41;5089333;28;20658;-43
2023/08/20 05:11:19;;;;;;;11.75;7.70;;;;;;;24.49;62.70;94874.13;5089529;28;20195;-44
2023/08/20 05:13:50;;;;;;;10.07;6.70;;;;;;;24.48;62.63;94867.28;5089261;28;20197;-43
2023/08/20 05:16:17;;;;;;;14.90;7.45;;;;;;;24.60;62.40;94873.38;5089490;28;20258;-44
2023/08/20 05:18:43;;;;;;;8.95;8.05;;;;;;;24.80;61.63;94867.09;5089301;28;20685;-42
2023/08/20 05:21:13;;;;;;;11.18;7.60;;;;;;;24.95;61.37;94875.34;5089029;28;20188;-42
2023/08/20 05:23:40;;;;;;;10.18;7.82;;;;;;;25.18;60.64;94875.44;5089748;28;20182;-44
2023/08/20 05:26:07;;;;;;;12.45;8.10;;;;;;;25.35;60.21;94880.03;5089085;28;20193;-43
2023/08/20 05:28:33;;;;;;;9.80;6.85;;;;;;;25.50;59.63;94888.25;5089595;28;20623;-44
2023/08/20 05:31:02;;;;;;;12.40;7.28;;;;;;;25.46;59.77;94880.03;5089028;28;20692;-44
2023/08/20 05:33:28;;;;;;;8.10;7.30;;;;;;;25.46;59.46;94882.66;5089534;28;20186;-42
2023/08/20 05:35:55;;;;;;;9.02;8.02;;;;;;;25.70;58.89;94886.13;5088982;28;20683;-44
2023/08/20 05:38:22;;;;;;;12.68;7.95;;;;;;;25.90;58.28;94877.13;5089641;28;20197;-44
2023/08/20 05:40:49;;;;;;;12.07;8.23;;;;;;;26.22;57.69;94886.25;5089062;28;20194;-45
2023/08/20 05:43:15;;;;;;;9.02;7.45;;;;;;;26.35;57.00;94860.81;5089409;28;20185;-44
2023/08/20 05:45:43;;;;;;;7.93;7.03;;;;;;;26.90;56.01;94884.72;5089513;28;20200;-44
2023/08/20 05:48:11;;;;;;;11.38;7.15;;;;;;;27.37;54.48;94891.59;5089498;28;20189;-44
2023/08/20 05:50:38;;;;;;;10.82;7.10;;;;;;;27.62;53.67;94883.31;5089273;28;20247;-45
2023/08/20 05:53:05;;;;;;;15.40;8.15;;;;;;;27.88;52.84;94885.31;5089707;28;20178;-43
2023/08/20 05:55:31;;;;;;;9.75;7.97;;;;;;;28.05;53.04;94887.13;5089107;28;20221;-42
2023/08/20 05:57:58;;;;;;;10.60;7.38;;;;;;;28.35;52.57;94892.00;5089315;28;20243;-44
2023/08/20 06:00:25;;;;;;;9.40;7.10;;;;;;;28.68;51.53;94888.50;5089297;28;20186;-42
2023/08/20 06:02:51;;;;;;;11.02;7.10;;;;;;;29.05;50.28;94887.88;5088891;28;20220;-43
2023/08/20 06:05:20;;;;;;;9.15;7.70;;;;;;;29.32;49.77;94883.41;5089162;28;20250;-43
2023/08/20 06:07:46;;;;;;;10.27;7.07;;;;;;;29.64;48.94;94893.16;5088804;28;20213;-45
2023/08/20 06:10:13;;;;;;;11.45;7.47;;;;;;;29.71;48.81;94891.13;5089112;28;20238;-44
2023/08/20 06:12:40;;;;;;;9.57;7.45;;;;;;;29.92;48.60;94889.41;5089176;28;20194;-44
2023/08/20 06:15:07;;;;;;;8.00;6.22;;;;;;;30.12;48.16;94888.75;5091321;28;20232;-44
2023/08/20 06:17:34;;;;;;;11.98;7.18;;;;;;;30.38;47.15;94882.56;5088828;28;20197;-44
2023/08/20 06:20:01;;;;;;;7.78;5.95;;;;;;;30.53;46.71;94865.19;5088913;28;20190;-44
2023/08/20 06:22:29;;;;;;;9.07;6.55;;;;;;;31.03;45.70;94892.84;5090526;28;20293;-45
2023/08/20 06:24:56;;;;;;;9.95;6.35;;;;;;;31.30;44.68;94897.94;5092793;28;20196;-45
2023/08/20 06:27:22;;;;;;;8.27;6.93;;;;;;;31.53;44.04;94900.09;5093173;28;20190;-44
2023/08/20 06:29:49;;;;;;;8.38;6.63;;;;;;;31.81;43.17;94905.91;5092967;28;20186;-44
2023/08/20 06:32:16;;;;;;;8.73;5.85;;;;;;;31.88;42.86;94886.09;5092988;28;20236;-44
2023/08/20 06:34:43;;;;;;;14.20;5.85;;;;;;;32.21;42.50;94897.13;5092598;28;20186;-43
2023/08/20 06:37:09;;;;;;;11.90;6.63;;;;;;;32.30;41.72;94898.19;5092591;28;20637;-51
2023/08/20 06:39:38;;;;;;;7.80;5.97;;;;;;;32.31;41.91;94901.63;5092246;28;20201;-45
2023/08/20 06:42:04;;;;;;;7.15;6.22;;;;;;;32.49;41.87;94895.78;5092419;28;20178;-44
2023/08/20 06:44:31;;;;;;;7.25;5.65;;;;;;;32.71;41.77;94895.41;5092483;28;20185;-43
2023/08/20 06:46:58;;;;;;;7.22;5.93;;;;;;;32.72;41.40;94889.03;5092294;28;20204;-44
2023/08/20 06:49:25;;;;;;;7.32;5.97;;;;;;;32.89;40.99;94896.66;5092002;28;20657;-43
2023/08/20 06:51:51;;;;;;;6.95;5.72;;;;;;;32.84;41.05;94899.31;5092154;28;20189;-44
2023/08/20 06:54:18;;;;;;;9.02;5.85;;;;;;;32.87;40.98;94901.44;5091675;28;20204;-43
2023/08/20 06:56:46;;;;;;;7.00;6.13;;;;;;;32.74;41.46;94902.03;5092229;28;20217;-44
2023/08/20 06:59:13;;;;;;;8.77;5.50;;;;;;;32.85;41.40;94907.00;5091788;28;20182;-43
2023/08/20 07:01:40;;;;;;;7.63;5.38;;;;;;;33.08;40.62;94902.16;5092414;28;20193;-44
2023/08/20 07:04:07;;;;;;;11.25;5.90;;;;;;;33.21;40.27;94888.28;5092196;28;20194;-44
2023/08/20 07:06:33;;;;;;;7.75;5.50;;;;;;;33.48;40.15;94903.78;5091610;28;20203;-43
2023/08/20 07:09:00;;;;;;;10.30;5.85;;;;;;;33.68;39.70;94903.63;5091925;28;20197;-44
2023/08/20 07:11:27;;;;;;;10.20;5.80;;;;;;;33.74;39.59;94906.22;5091388;28;20200;-44
2023/08/20 07:13:55;;;;;;;7.50;5.20;;;;;;;33.75;39.01;94900.63;5091604;28;20182;-43
2023/08/20 07:16:22;;;;;;;5.53;4.53;;;;;;;33.69;38.46;94896.44;5091368;28;20696;-42
2023/08/20 07:18:49;;;;;;;6.32;4.47;;;;;;;33.71;38.52;94908.34;5091325;28;20197;-45
2023/08/20 07:21:16;;;;;;;8.95;4.95;;;;;;;33.76;38.05;94896.13;5091742;28;20200;-45
2023/08/20 07:23:42;;;;;;;5.78;5.18;;;;;;;33.74;38.03;94903.56;5091553;28;20186;-45
2023/08/20 07:26:12;;;;;;;9.10;5.18;;;;;;;33.75;37.89;94889.22;5091181;28;20202;-44
2023/08/20 07:31:24;;;;;;;4.95;4.55;;;;;;;34.00;37.13;94909.47;5090947;28;20700;-43
2023/08/20 07:33:52;;;;;;;7.93;4.45;;;;;;;34.04;37.34;94905.19;5090309;28;20250;-45
2023/08/20 07:36:21;;;;;;;4.97;4.40;;;;;;;34.18;37.17;94901.59;5091096;28;20224;-43
2023/08/20 07:38:49;;;;;;;9.27;5.25;;;;;;;34.16;36.79;94898.44;5091160;28;20181;-44
2023/08/20 07:41:15;;;;;;;8.90;5.35;;;;;;;33.88;36.95;94899.97;5090701;28;20185;-45
2023/08/20 07:43:42;;;;;;;6.78;5.20;;;;;;;33.25;37.87;94893.81;5090978;28;20182;-44
2023/08/20 07:46:10;;;;;;;8.52;5.03;;;;;;;33.10;38.72;94907.97;5090715;28;20713;-45
2023/08/20 07:48:38;;;;;;;9.20;5.38;;;;;;;32.90;38.91;94911.47;5090920;28;20212;-44
2023/08/20 07:51:05;;;;;;;6.90;4.78;;;;;;;32.72;38.97;94902.28;5090680;28;20194;-44
2023/08/20 07:53:32;;;;;;;4.97;4.57;;;;;;;32.59;39.70;94908.97;5090891;28;20317;-45
2023/08/20 07:56:00;;;;;;;5.10;4.63;;;;;;;32.31;39.73;94910.34;5090566;28;20290;-44
2023/08/20 07:58:26;;;;;;;5.10;4.60;;;;;;;32.24;39.66;94907.19;5090515;28;20193;-44
2023/08/20 08:00:53;;;;;;;6.85;4.47;;;;;;;32.36;39.81;94910.34;5090701;28;20198;-43
2023/08/20 08:03:20;;;;;;;6.65;4.70;;;;;;;32.45;39.25;94907.97;5090323;28;20213;-44
2023/08/20 08:05:51;;;;;;;6.65;4.75;;;;;;;32.38;39.48;94880.97;5091312;28;20615;-45
2023/08/20 08:08:19;;;;;;;7.57;4.70;;;;;;;32.76;38.97;94913.13;5091621;28;20197;-44
2023/08/20 08:10:46;;;;;;;5.78;4.80;;;;;;;32.78;38.74;94900.44;5090357;28;20190;-43
2023/08/20 08:13:13;;;;;;;6.45;4.63;;;;;;;32.88;38.71;94897.72;5090266;28;20247;-43
2023/08/20 08:15:40;;;;;;;6.85;4.85;;;;;;;32.90;37.53;94904.34;5090327;28;20262;-44
2023/08/20 08:18:08;;;;;;;4.47;4.15;;;;;;;32.91;37.79;94905.94;5090003;28;20190;-44
2023/08/20 08:20:35;;;;;;;8.43;5.10;;;;;;;32.87;37.72;94891.63;5090397;28;20668;-45
2023/08/20 08:23:03;;;;;;;5.13;4.40;;;;;;;33.02;37.51;94904.03;5090158;28;20189;-45
2023/08/20 08:25:31;;;;;;;4.60;4.13;;;;;;;33.19;37.23;94906.31;5090519;28;20205;-45
2023/08/20 08:27:57;;;;;;;7.53;4.30;;;;;;;33.33;36.63;94911.78;5089916;28;20200;-43
2023/08/20 08:30:24;;;;;;;8.98;4.88;;;;;;;33.36;36.35;94896.13;5089873;28;20197;-44
2023/08/20 08:32:51;;;;;;;6.80;5.28;;;;;;;33.42;36.39;94907.47;5090388;28;20238;-44
2023/08/20 08:35:18;;;;;;;8.23;5.00;;;;;;;33.44;36.57;94897.44;5089752;28;20197;-44
2023/08/20 08:37:45;;;;;;;6.95;4.85;;;;;;;33.54;36.28;94907.16;5090395;28;20189;-43
2023/08/20 08:40:14;;;;;;;6.60;4.85;;;;;;;33.56;36.51;94903.19;5089605;28;20657;-44
2023/08/20 08:42:41;;;;;;;5.72;4.53;;;;;;;33.60;36.20;94898.91;5089676;28;20239;-44
2023/08/20 08:45:09;;;;;;;4.90;3.97;;;;;;;33.64;35.54;94904.47;5089271;28;20190;-44
2023/08/20 08:47:37;;;;;;;7.68;4.65;;;;;;;33.59;35.71;94902.59;5089944;28;20242;-44
2023/08/20 08:50:06;;;;;;;10.63;4.90;;;;;;;33.63;35.77;94902.84;5089785;28;20194;-43
2023/08/20 08:52:33;;;;;;;4.40;4.00;;;;;;;33.72;35.48;94903.84;5089767;28;20197;-43
2023/08/20 08:55:00;;;;;;;4.93;3.90;;;;;;;33.70;34.02;94903.34;5089293;28;20201;-43
2023/08/20 08:57:28;;;;;;;4.63;3.35;;;;;;;33.64;33.44;94915.06;5089439;28;20726;-43
2023/08/20 08:59:55;;;;;;;3.92;3.50;;;;;;;33.51;33.89;94902.41;5089645;28;20189;-43
2023/08/20 09:02:23;;;;;;;7.03;4.05;;;;;;;33.50;34.31;94895.53;5089633;28;20652;-45
2023/08/20 09:04:49;;;;;;;5.40;4.20;;;;;;;33.53;34.46;94905.59;5089606;28;20197;-46
2023/08/20 09:07:16;;;;;;;4.28;3.33;;;;;;;33.57;34.71;94902.09;5089631;28;20197;-45
2023/08/20 09:09:45;;;;;;;4.13;3.72;;;;;;;33.64;34.60;94909.75;5089933;28;20205;-44
2023/08/20 09:12:16;;;;;;;8.30;3.83;;;;;;;33.60;33.90;94906.88;5089309;28;20200;-45
2023/08/20 09:14:48;;;;;;;3.85;3.55;;;;;;;33.40;33.59;94899.81;5089827;28;20210;-45
2023/08/20 09:17:15;;;;;;;4.20;3.80;;;;;;;33.22;33.93;94903.13;5089750;28;20251;-45
2023/08/20 09:19:44;;;;;;;4.78;3.63;;;;;;;33.14;34.15;94899.19;5089446;28;20189;-45
2023/08/20 09:22:12;;;;;;;4.00;3.70;;;;;;;33.14;33.92;94898.41;5089129;28;20190;-44
2023/08/20 09:24:42;;;;;;;5.35;4.40;;;;;;;33.05;34.53;94895.53;5089643;28;20606;-43
2023/08/20 09:27:09;;;;;;;8.23;4.22;;;;;;;33.14;34.88;94895.75;5089308;28;20217;-44
2023/08/20 09:29:46;;;;;;;5.07;4.05;;;;;;;33.13;34.69;94904.78;5089369;28;20584;-44
2023/08/20 09:32:17;;;;;;;6.97;3.92;;;;;;;33.11;34.16;94898.94;5088921;28;20695;-43
2023/08/20 09:34:43;;;;;;;5.20;3.58;;;;;;;33.12;34.42;94895.25;5089257;28;20201;-44
2023/08/20 09:37:11;;;;;;;4.10;3.75;;;;;;;33.06;34.55;94910.38;5088421;28;20216;-45
2023/08/20 09:39:37;;;;;;;3.80;3.40;;;;;;;33.01;34.46;94891.06;5089161;28;20185;-44
2023/08/20 09:42:06;;;;;;;3.60;3.30;;;;;;;32.89;34.07;94894.00;5088898;28;20225;-45
2023/08/20 09:44:35;;;;;;;3.78;3.45;;;;;;;32.79;34.05;94888.75;5089604;28;20186;-45
2023/08/20 09:47:07;;;;;;;4.05;3.65;;;;;;;32.64;33.97;94890.44;5088816;28;20225;-44
2023/08/20 09:49:38;;;;;;;3.83;3.50;;;;;;;32.58;34.11;94882.75;5089223;28;20198;-44
2023/08/20 09:52:07;;;;;;;3.67;3.38;;;;;;;32.52;34.31;94886.50;5089075;28;20189;-44
2023/08/20 09:54:46;;;;;;;9.05;3.92;;;;;;;32.34;34.23;94862.19;5089459;28;20194;-44
2023/08/20 09:57:22;;;;;;;3.70;3.40;;;;;;;32.40;34.74;94889.44;5090347;28;20267;-45
2023/08/20 09:59:50;;;;;;;4.05;3.75;;;;;;;32.27;34.73;94864.31;5093462;28;20193;-44
2023/08/20 10:02:18;;;;;;;7.00;3.78;;;;;;;32.45;34.60;94882.28;5092702;28;20185;-44
2023/08/20 10:04:45;;;;;;;3.95;3.45;;;;;;;32.43;34.99;94879.13;5092805;28;20194;-44
2023/08/20 10:07:13;;;;;;;3.80;3.50;;;;;;;32.32;35.06;94882.03;5092556;28;20656;-44
2023/08/20 10:09:41;;;;;;;8.45;4.15;;;;;;;32.27;35.35;94892.63;5093131;28;20178;-45
2023/08/20 10:12:08;;;;;;;5.88;3.90;;;;;;;32.33;35.01;94886.25;5092475;28;20599;-44
2023/08/20 10:14:35;;;;;;;3.97;3.58;;;;;;;32.34;34.60;94886.00;5092905;28;20265;-43
2023/08/20 10:17:09;;;;;;;4.00;3.00;;;;;;;32.32;34.34;94874.09;5092268;28;20290;-43
2023/08/20 10:19:38;;;;;;;4.65;3.50;;;;;;;32.30;34.68;94884.13;5092751;28;20626;-44
2023/08/20 10:22:05;;;;;;;5.70;3.40;;;;;;;32.29;34.46;94883.34;5092546;28;20212;-43
2023/08/20 10:24:42;;;;;;;4.65;3.53;;;;;;;32.15;34.73;94883.13;5092520;28;20181;-43
2023/08/20 10:27:10;;;;;;;3.35;3.05;;;;;;;32.09;34.88;94884.22;5092179;28;20703;-44
2023/08/20 10:29:42;;;;;;;3.53;3.22;;;;;;;32.15;34.69;94871.75;5092520;28;20197;-43
2023/08/20 10:32:10;;;;;;;5.63;3.45;;;;;;;32.28;34.36;94883.63;5091922;28;20641;-44
2023/08/20 10:34:40;;;;;;;3.97;3.47;;;;;;;32.17;34.60;94885.53;5092479;28;20535;-44
2023/08/20 10:37:11;;;;;;;4.82;3.30;;;;;;;32.23;34.07;94879.13;5091915;28;20599;-43
2023/08/20 10:39:38;;;;;;;3.17;2.95;;;;;;;32.11;34.23;94873.34;5092214;28;20213;-43
2023/08/20 10:42:24;;;;;;;5.15;3.20;;;;;;;32.03;34.65;94868.59;5091690;28;20201;-43
2023/08/20 10:44:58;;;;;;;9.27;3.30;;;;;;;31.97;34.93;94865.19;5092046;28;20204;-43
2023/08/20 10:47:25;;;;;;;3.40;3.10;;;;;;;32.02;35.24;94859.09;5092171;28;20270;-45
2023/08/20 10:49:54;;;;;;;3.50;3.20;;;;;;;32.03;34.47;94868.59;5092036;28;20372;-44
2023/08/20 10:52:24;;;;;;;4.70;3.25;;;;;;;31.88;34.53;94864.13;5091600;28;20293;-45
2023/08/20 10:54:52;;;;;;;4.53;3.10;;;;;;;31.97;34.33;94855.38;5091863;28;20677;-43
2023/08/20 10:57:21;;;;;;;5.13;3.72;;;;;;;32.03;34.44;94856.16;5091883;28;20300;-43
2023/08/20 10:59:59;;;;;;;3.15;2.95;;;;;;;31.95;35.09;94852.22;5092148;28;20278;-44
2023/08/20 11:02:26;;;;;;;6.00;3.60;;;;;;;31.98;35.46;94846.38;5091337;28;20238;-44
2023/08/20 11:04:54;;;;;;;3.60;2.80;;;;;;;31.95;35.28;94852.22;5091896;28;20280;-43
2023/08/20 11:07:23;;;;;;;4.80;3.20;;;;;;;32.01;35.62;94854.84;5091418;28;20228;-44
2023/08/20 11:09:53;;;;;;;8.98;3.30;;;;;;;31.92;35.33;94839.53;5091341;28;20200;-45
2023/08/20 11:12:21;;;;;;;3.00;2.70;;;;;;;32.02;34.84;94843.19;5091409;28;20197;-44
2023/08/20 11:14:48;;;;;;;4.93;3.33;;;;;;;32.04;35.02;94851.66;5091559;28;20197;-44
2023/08/20 11:17:14;;;;;;;3.38;3.00;;;;;;;32.09;34.79;94846.38;5091208;28;20229;-43
2023/08/20 11:19:41;;;;;;;3.60;3.30;;;;;;;32.09;34.45;94841.06;5091480;28;20613;-44
2023/08/20 11:22:10;;;;;;;4.25;3.15;;;;;;;32.12;34.17;94836.00;5091108;28;20194;-44
2023/08/20 11:24:38;;;;;;;3.78;2.67;;;;;;;32.10;33.99;94840.00;5091544;28;20193;-44
2023/08/20 11:27:05;;;;;;;3.63;3.28;;;;;;;32.07;34.78;94843.97;5091109;28;20312;-44
2023/08/20 11:29:32;;;;;;;3.92;3.25;;;;;;;31.97;34.78;94836.06;5091394;28;20201;-44
2023/08/20 11:32:02;;;;;;;4.90;3.42;;;;;;;32.01;34.59;94826.53;5090956;28;20229;-43
2023/08/20 11:34:30;;;;;;;4.43;3.22;;;;;;;32.09;34.87;94836.56;5091418;28;20203;-43
2023/08/20 11:36:57;;;;;;;3.45;3.10;;;;;;;32.18;34.51;94842.91;5091069;28;20225;-45